KEP weather

Nepalgunj Airport
Nepalgunj, Bheri, Nepal

Public forecast

Using degrees Celsius for public forecast. Weather courtesy of forecast.io.

Closest aviation weather report (METAR) to Nepalgunj Airport

Closest report is Chaudhary Charan Singh International Airport, 90.7 nm (167.9 km) SSW. Retrieved 2020/07/10 09:00 UTC (18 minutes ago):

VILK 100900Z 20004KT 4000 BR SCT020 SCT025 BKN100 30/27 Q0998 NOSIG

Closest aviation forecast (TAF) to Nepalgunj Airport

Closest forecast is Chaudhary Charan Singh International Airport, 90.7 nm (167.9 km) SSW. Retrieved 2020/07/10 06:48 UTC (3 hours ago):

TAF VILK 100500Z 1006/1112 25007KT 3000 BR SCT020 BKN100 TEMPO 1006/1010 2000 -TSRA -RA FEW030CB OVC090 BECMG 1008/1010 27008KT 5000 HZ SCT020 OVC090 BECMG 1013/1015 24004KT 3000 HZ BR SCT020 BKN100 TEMPO 1012/1016 2000 -TSRA -RA FEW030CB OVC090 BECMG 1104/1106 27008KT 5000 HZ SCT020 BKN100 TEMPO 1106/1110 2000 -TSRA -RA FEW030CB OVC090